Terminal Aerodrome Forecast
Issued by NWS Shreveport, LA

Home | Current Version | Previous Version | Text Only | Print | Product List | Glossary On
Versions: 1 2 3 4 5 6 7 8 9 10 11 12 13 14 15 16 17
000
FTUS44 KSHV 231100
TAFLFK
TAF
KLFK 231135Z 2312/2412 10009KT P6SM BKN006 OVC100
      TEMPO 2313/2314 P6SM SCT006 OVC110
     FM231400 21009KT P6SM FEW010 BKN110
     FM231800 23013G20KT P6SM SCT110
     FM232300 19010KT P6SM SCT250
     FM240200 26012G20KT P6SM SKC
     FM240600 30008KT P6SM SKC=

USA.gov is the U.S. government's official web portal to all federal, state and local government web resources and services.